createdAt,value
2023-04-22T00:01:57.142Z,6.12
2023-04-22T00:07:04.452Z,5.99
2023-04-22T00:21:50.811Z,5.91
2023-04-22T00:26:58.544Z,5.80
2023-04-22T00:32:06.176Z,5.81
2023-04-22T00:37:13.815Z,5.83
2023-04-22T00:42:21.077Z,5.87
2023-04-22T00:47:29.841Z,5.90
2023-04-22T00:52:37.628Z,5.85
2023-04-22T00:57:45.847Z,5.82
2023-04-22T01:02:53.984Z,5.89
2023-04-22T01:08:03.542Z,5.91
2023-04-22T01:13:11.252Z,5.91
2023-04-22T01:18:18.982Z,5.92
2023-04-22T01:23:26.496Z,5.82
2023-04-22T01:28:34.244Z,5.64
2023-04-22T01:33:41.804Z,5.59
2023-04-22T01:38:49.171Z,5.44
2023-04-22T01:43:59.029Z,5.40
2023-04-22T01:54:26.424Z,5.21
2023-04-22T01:59:33.861Z,5.21
2023-04-22T02:04:41.468Z,5.29
2023-04-22T02:09:50.845Z,5.26
2023-04-22T02:14:58.612Z,5.05
2023-04-22T02:20:07.653Z,4.97
2023-04-22T02:25:15.673Z,4.96
2023-04-22T02:30:23.544Z,4.92
2023-04-22T02:35:30.959Z,4.74
2023-04-22T02:40:38.660Z,4.67
2023-04-22T02:45:46.373Z,4.69
2023-04-22T02:50:53.887Z,4.74
2023-04-22T02:56:04.522Z,4.79
2023-04-22T03:01:12.251Z,4.84
2023-04-22T03:06:19.886Z,4.79
2023-04-22T03:11:27.749Z,4.59
2023-04-22T03:16:36.191Z,4.39
2023-04-22T03:21:43.774Z,4.21
2023-04-22T03:26:51.330Z,4.18
2023-04-22T03:31:58.851Z,4.24
2023-04-22T03:37:06.529Z,4.18
2023-04-22T03:42:15.613Z,3.98
2023-04-22T03:47:22.882Z,3.82
2023-04-22T03:52:28.487Z,3.71
2023-04-22T03:57:36.141Z,3.71
2023-04-22T04:02:43.788Z,3.72
2023-04-22T04:07:51.260Z,3.77
2023-04-22T04:12:56.895Z,3.92
2023-04-22T04:18:04.756Z,4.06
2023-04-22T04:23:12.155Z,4.17
2023-04-22T04:28:20.843Z,4.31
2023-04-22T04:33:28.940Z,4.44
2023-04-22T04:38:36.272Z,4.57
2023-04-22T04:43:46.742Z,4.70
2023-04-22T04:48:54.234Z,4.81
2023-04-22T04:54:01.622Z,4.95
2023-04-22T04:59:09.074Z,5.07
2023-04-22T05:04:18.491Z,5.19
2023-04-22T05:09:27.076Z,5.32
2023-04-22T05:14:34.944Z,5.47
2023-04-22T05:19:42.505Z,5.63
2023-04-22T05:24:49.924Z,5.81
2023-04-22T05:29:57.553Z,6.02
2023-04-22T05:35:05.930Z,6.34
2023-04-22T05:40:14.409Z,6.71
2023-04-22T05:45:21.964Z,7.07
2023-04-22T05:50:29.484Z,7.48
2023-04-22T05:55:37.792Z,7.82
2023-04-22T06:00:45.375Z,8.17
2023-04-22T06:05:52.679Z,8.56
2023-04-22T06:11:00.192Z,8.93
2023-04-22T06:21:16.225Z,9.70
2023-04-22T06:26:25.079Z,10.08
2023-04-22T06:31:32.346Z,10.41
2023-04-22T06:36:39.740Z,10.62
2023-04-22T06:41:47.212Z,10.79
2023-04-22T06:46:56.577Z,11.00
2023-04-22T06:52:05.898Z,11.17
2023-04-22T06:57:13.222Z,11.27
2023-04-22T07:02:21.295Z,11.40
2023-04-22T07:07:30.538Z,11.57
2023-04-22T07:12:38.087Z,11.73
2023-04-22T07:17:45.967Z,11.95
2023-04-22T07:22:54.224Z,12.15
2023-04-22T07:28:01.944Z,12.35
2023-04-22T07:33:09.334Z,12.63
2023-04-22T07:38:16.798Z,12.90
2023-04-22T07:43:24.248Z,13.17
2023-04-22T07:48:32.697Z,13.43
2023-04-22T07:53:39.993Z,13.70
2023-04-22T07:58:47.515Z,13.97
2023-04-22T08:03:55.352Z,14.27
2023-04-22T08:09:03.130Z,14.60
2023-04-22T08:14:10.645Z,14.93
2023-04-22T08:19:17.906Z,15.24
2023-04-22T08:24:25.810Z,15.52
2023-04-22T08:29:34.346Z,15.79
2023-04-22T08:34:41.991Z,16.04
2023-04-22T08:39:49.604Z,16.30
2023-04-22T08:44:58.458Z,16.52
2023-04-22T08:50:09.970Z,16.70
2023-04-22T08:55:17.565Z,16.84
2023-04-22T09:00:24.892Z,16.92
2023-04-22T09:05:34.592Z,16.96
2023-04-22T09:10:42.899Z,17.09
2023-04-22T09:15:50.871Z,17.22
2023-04-22T09:20:59.556Z,17.36
2023-04-22T09:26:09.467Z,17.45
2023-04-22T09:31:19.731Z,17.50
2023-04-22T09:36:29.693Z,17.53
2023-04-22T09:42:00.162Z,17.52
2023-04-22T09:47:09.295Z,17.52
2023-04-22T09:52:27.789Z,17.48
2023-04-22T09:57:35.028Z,17.43
2023-04-22T10:02:42.267Z,17.37
2023-04-22T10:07:49.688Z,17.35
2023-04-22T10:12:58.283Z,17.32
2023-04-22T10:18:07.984Z,17.40
2023-04-22T10:23:20.116Z,17.44
2023-04-22T10:28:31.012Z,17.46
2023-04-22T10:33:42.769Z,17.44
2023-04-22T10:39:19.104Z,17.42
2023-04-22T10:44:31.652Z,17.44
2023-04-22T10:49:39.479Z,17.45
2023-04-22T10:55:03.379Z,17.47
2023-04-22T11:00:26.989Z,17.52
2023-04-22T11:05:35.856Z,17.62
2023-04-22T11:10:46.210Z,17.73
2023-04-22T11:15:55.898Z,17.81
2023-04-22T11:21:06.613Z,17.85
2023-04-22T11:26:13.764Z,17.89
2023-04-22T11:31:21.067Z,17.89
2023-04-22T11:36:29.020Z,17.94
2023-04-22T11:41:36.327Z,17.97
2023-04-22T11:46:47.180Z,17.96
2023-04-22T11:51:58.937Z,17.95
2023-04-22T11:57:08.485Z,17.98
2023-04-22T12:02:18.761Z,18.07
2023-04-22T12:07:28.092Z,18.14
2023-04-22T12:12:37.413Z,18.12
2023-04-22T12:17:48.480Z,18.13
2023-04-22T12:22:59.095Z,18.15
2023-04-22T12:28:06.363Z,18.20
2023-04-22T12:33:13.706Z,18.25
2023-04-22T12:38:21.839Z,18.34
2023-04-22T12:43:29.405Z,18.37
2023-04-22T12:48:37.854Z,18.37
2023-04-22T12:53:45.297Z,18.38
2023-04-22T12:58:53.110Z,18.41
2023-04-22T13:04:00.753Z,18.46
2023-04-22T13:09:08.456Z,18.52
2023-04-22T13:14:16.259Z,18.61
2023-04-22T13:19:25.830Z,18.69
2023-04-22T13:24:33.131Z,18.73
2023-04-22T13:29:40.977Z,18.76
2023-04-22T13:34:48.734Z,18.76
2023-04-22T13:39:56.152Z,18.82
2023-04-22T13:45:03.458Z,18.85
2023-04-22T13:50:12.462Z,18.83
2023-04-22T13:55:21.063Z,18.86
2023-04-22T14:00:28.489Z,18.80
2023-04-22T14:05:35.925Z,18.73
2023-04-22T14:10:43.187Z,18.73
2023-04-22T14:15:51.055Z,18.70
2023-04-22T14:20:58.798Z,18.70
2023-04-22T14:26:06.324Z,18.73
2023-04-22T14:31:15.320Z,18.72
2023-04-22T14:36:22.494Z,18.70
2023-04-22T14:41:29.683Z,18.72
2023-04-22T14:46:36.952Z,18.75
2023-04-22T14:51:44.570Z,18.78
2023-04-22T14:56:54.634Z,18.79
2023-04-22T15:02:02.363Z,18.76
2023-04-22T15:07:09.569Z,18.69
2023-04-22T15:12:17.252Z,18.66
2023-04-22T15:17:24.999Z,18.66
2023-04-22T15:22:32.957Z,18.64
2023-04-22T15:27:40.843Z,18.59
2023-04-22T15:32:48.344Z,18.52
2023-04-22T15:37:57.786Z,18.48
2023-04-22T15:43:05.058Z,18.49
2023-04-22T15:48:12.844Z,18.46
2023-04-22T15:53:20.311Z,18.44
2023-04-22T15:58:30.569Z,18.38
2023-04-22T16:03:40.387Z,18.32
2023-04-22T16:08:47.865Z,18.26
2023-04-22T16:13:55.392Z,18.23
2023-04-22T16:19:02.983Z,18.18
2023-04-22T16:24:10.643Z,18.12
2023-04-22T16:29:19.632Z,18.07
2023-04-22T16:34:26.879Z,18.03
2023-04-22T16:39:34.264Z,18.01
2023-04-22T16:44:41.582Z,17.95
2023-04-22T16:49:48.863Z,17.86
2023-04-22T16:54:57.315Z,17.76
2023-04-22T17:00:06.146Z,17.67
2023-04-22T17:05:14.170Z,17.58
2023-04-22T17:10:21.611Z,17.49
2023-04-22T17:15:29.524Z,17.42
2023-04-22T17:20:37.032Z,17.35
2023-04-22T17:25:47.270Z,17.25
2023-04-22T17:30:54.462Z,17.14
2023-04-22T17:36:01.730Z,17.02
2023-04-22T17:41:09.303Z,16.88
2023-04-22T17:46:16.820Z,16.75
2023-04-22T17:51:24.485Z,16.60
2023-04-22T17:56:31.967Z,16.47
2023-04-22T18:01:40.118Z,16.34
2023-04-22T18:06:47.758Z,16.20
2023-04-22T18:11:57.623Z,16.05
2023-04-22T18:17:04.963Z,15.89
2023-04-22T18:22:12.736Z,15.75
2023-04-22T18:27:20.059Z,15.62
2023-04-22T18:32:30.506Z,15.51
2023-04-22T18:37:38.304Z,15.38
2023-04-22T18:42:46.451Z,15.26
2023-04-22T18:47:53.591Z,15.15
2023-04-22T18:53:01.291Z,15.02
2023-04-22T18:58:09.118Z,14.90
2023-04-22T19:03:16.795Z,14.79
2023-04-22T19:08:24.733Z,14.66
2023-04-22T19:13:32.845Z,14.53
2023-04-22T19:18:40.354Z,14.38
2023-04-22T19:23:48.891Z,14.23
2023-04-22T19:28:56.092Z,14.03
2023-04-22T19:34:04.168Z,13.85
2023-04-22T19:39:11.212Z,13.61
2023-04-22T19:44:18.833Z,13.39
2023-04-22T19:49:27.183Z,13.14
2023-04-22T19:54:35.301Z,12.94
2023-04-22T19:59:43.501Z,12.75
2023-04-22T20:04:51.521Z,12.57
2023-04-22T20:09:59.547Z,12.40
2023-04-22T20:15:22.294Z,12.27
2023-04-22T20:20:31.062Z,11.99
2023-04-22T20:25:41.186Z,11.73
2023-04-22T20:30:49.328Z,11.51
2023-04-22T20:35:58.217Z,11.32
2023-04-22T20:41:07.090Z,11.14
2023-04-22T20:46:14.408Z,10.96
2023-04-22T20:51:22.025Z,10.80
2023-04-22T20:56:29.630Z,10.63
2023-04-22T21:01:37.268Z,10.44
2023-04-22T21:06:45.982Z,10.25
2023-04-22T21:11:54.836Z,10.13
2023-04-22T21:17:06.962Z,10.00
2023-04-22T21:22:14.710Z,9.86
2023-04-22T21:27:23.305Z,9.66
2023-04-22T21:32:30.679Z,9.53
2023-04-22T21:37:38.033Z,9.44
2023-04-22T21:42:45.613Z,9.34
2023-04-22T21:47:53.532Z,9.22
2023-04-22T21:53:01.040Z,9.06
2023-04-22T21:58:08.710Z,8.96
2023-04-22T22:03:16.063Z,8.97
2023-04-22T22:08:24.050Z,8.97
2023-04-22T22:13:31.300Z,8.91
2023-04-22T22:18:38.307Z,8.80
2023-04-22T22:23:43.863Z,8.68
2023-04-22T22:28:51.353Z,8.60
2023-04-22T22:33:58.969Z,8.49
2023-04-22T22:39:07.192Z,8.43
2023-04-22T22:44:14.313Z,8.45
2023-04-22T22:49:21.911Z,8.39
2023-04-22T22:54:29.204Z,8.21
2023-04-22T23:05:14.328Z,7.80
2023-04-22T23:10:22.325Z,7.75
2023-04-22T23:15:29.948Z,7.85
2023-04-22T23:20:38.545Z,7.93
2023-04-22T23:25:46.871Z,7.90
2023-04-22T23:30:56.006Z,7.84
2023-04-22T23:36:05.440Z,7.86
2023-04-22T23:41:13.326Z,7.86
2023-04-22T23:46:21.084Z,7.81
2023-04-22T23:51:28.824Z,7.69
2023-04-22T23:56:37.661Z,7.60
